createdAt,value
2019-05-28T00:00:49.017Z,26.87
2019-05-28T00:03:17.529Z,26.07
2019-05-28T00:05:45.987Z,27.40
2019-05-28T00:08:14.492Z,29.13
2019-05-28T00:10:43.040Z,30.33
2019-05-28T00:13:11.487Z,29.57
2019-05-28T00:15:40.102Z,27.53
2019-05-28T00:18:08.534Z,29.40
2019-05-28T00:20:36.966Z,27.47
2019-05-28T00:23:05.401Z,26.57
2019-05-28T00:25:33.790Z,26.47
2019-05-28T00:28:02.237Z,25.10
2019-05-28T00:30:30.790Z,24.43
2019-05-28T00:32:59.261Z,27.60
2019-05-28T00:35:27.678Z,28.97
2019-05-28T00:37:56.171Z,24.27
2019-05-28T00:40:24.582Z,22.90
2019-05-28T00:42:53.186Z,23.83
2019-05-28T00:45:22.766Z,22.57
2019-05-28T00:47:51.272Z,24.93
2019-05-28T00:50:19.817Z,28.27
2019-05-28T00:52:48.445Z,29.37
2019-05-28T00:55:17.217Z,23.50
2019-05-28T00:57:47.836Z,21.50
2019-05-28T01:00:16.870Z,22.10
2019-05-28T01:02:45.393Z,23.53
2019-05-28T01:05:14.038Z,27.03
2019-05-28T01:07:42.484Z,24.53
2019-05-28T01:10:12.239Z,25.07
2019-05-28T01:12:40.712Z,22.37
2019-05-28T01:15:10.810Z,25.33
2019-05-28T01:17:39.232Z,22.80
2019-05-28T01:20:09.537Z,21.53
2019-05-28T01:22:37.939Z,22.47
2019-05-28T01:25:07.516Z,25.80
2019-05-28T01:27:35.933Z,24.33
2019-05-28T01:30:06.944Z,21.70
2019-05-28T01:32:35.364Z,22.83
2019-05-28T01:35:05.336Z,23.40
2019-05-28T01:37:33.765Z,22.70
2019-05-28T01:40:02.408Z,22.40
2019-05-28T01:42:30.953Z,28.10
2019-05-28T01:44:59.400Z,25.60
2019-05-28T01:47:27.874Z,23.23
2019-05-28T01:49:56.367Z,28.10
2019-05-28T01:52:24.996Z,24.60
2019-05-28T01:54:53.406Z,22.33
2019-05-28T01:57:21.842Z,25.37
2019-05-28T01:59:50.283Z,23.83
2019-05-28T02:02:18.760Z,21.37
2019-05-28T02:04:47.165Z,25.00
2019-05-28T02:07:15.560Z,21.87
2019-05-28T02:09:43.987Z,20.00
2019-05-28T02:12:12.447Z,23.87
2019-05-28T02:14:40.851Z,19.83
2019-05-28T02:17:09.379Z,20.63
2019-05-28T02:19:37.900Z,21.77
2019-05-28T02:22:06.278Z,20.87
2019-05-28T02:24:34.698Z,26.03
2019-05-28T02:27:03.204Z,23.40
2019-05-28T02:29:31.619Z,22.90
2019-05-28T02:32:00.074Z,21.87
2019-05-28T02:34:28.483Z,22.87
2019-05-28T02:36:56.972Z,23.87
2019-05-28T02:39:25.446Z,19.87
2019-05-28T02:41:53.892Z,22.93
2019-05-28T02:44:22.404Z,21.93
2019-05-28T02:46:50.977Z,21.63
2019-05-28T02:49:19.424Z,30.73
2019-05-28T02:51:48.266Z,19.77
2019-05-28T02:54:16.718Z,18.40
2019-05-28T02:56:47.235Z,22.27
2019-05-28T02:59:18.579Z,21.13
2019-05-28T03:01:50.071Z,18.03
2019-05-28T03:04:21.581Z,23.27
2019-05-28T03:06:54.266Z,17.70
2019-05-28T03:09:25.570Z,21.43
2019-05-28T03:11:54.022Z,16.93
2019-05-28T03:14:22.452Z,17.90
2019-05-28T03:16:53.987Z,16.70
2019-05-28T03:19:24.412Z,17.40
2019-05-28T03:21:53.543Z,17.77
2019-05-28T03:24:23.610Z,17.93
2019-05-28T03:26:52.038Z,22.10
2019-05-28T03:29:20.480Z,17.87
2019-05-28T03:32:07.131Z,21.87
2019-05-28T03:34:19.139Z,18.77
2019-05-28T03:36:48.776Z,24.37
2019-05-28T03:39:17.234Z,20.60
2019-05-28T03:41:45.664Z,21.00
2019-05-28T03:44:14.097Z,21.23
2019-05-28T03:46:42.589Z,19.47
2019-05-28T03:49:11.121Z,17.80
2019-05-28T03:51:40.179Z,19.60
2019-05-28T03:54:08.720Z,20.63
2019-05-28T03:56:37.213Z,20.90
2019-05-28T03:59:05.715Z,18.17
2019-05-28T04:01:34.118Z,20.90
2019-05-28T04:04:02.661Z,17.13
2019-05-28T04:06:31.104Z,18.40
2019-05-28T04:08:59.598Z,18.57
2019-05-28T04:11:41.947Z,17.70
2019-05-28T04:13:58.272Z,18.33
2019-05-28T04:16:26.771Z,19.13
2019-05-28T04:18:55.353Z,19.73
2019-05-28T04:21:23.796Z,17.50
2019-05-28T04:23:52.218Z,16.20
2019-05-28T04:26:20.686Z,17.90
2019-05-28T04:28:49.086Z,17.40
2019-05-28T04:31:17.640Z,17.23
2019-05-28T04:33:46.391Z,19.93
2019-05-28T04:36:14.821Z,15.47
2019-05-28T04:38:43.333Z,17.30
2019-05-28T04:41:11.818Z,19.13
2019-05-28T04:43:41.020Z,18.33
2019-05-28T04:46:09.707Z,18.03
2019-05-28T04:48:38.174Z,19.43
2019-05-28T04:51:06.586Z,16.70
2019-05-28T04:53:35.060Z,16.80
2019-05-28T04:56:03.492Z,20.00
2019-05-28T04:58:32.022Z,18.13
2019-05-28T05:01:00.445Z,18.20
2019-05-28T05:03:28.938Z,17.63
2019-05-28T05:05:57.388Z,19.77
2019-05-28T05:08:25.924Z,16.00
2019-05-28T05:10:54.379Z,18.27
2019-05-28T05:13:22.990Z,17.70
2019-05-28T05:15:51.426Z,20.57
2019-05-28T05:18:19.824Z,18.30
2019-05-28T05:20:48.248Z,17.07
2019-05-28T05:23:16.767Z,15.40
2019-05-28T05:25:45.194Z,17.20
2019-05-28T05:28:13.624Z,19.97
2019-05-28T05:30:42.168Z,20.20
2019-05-28T05:33:20.063Z,22.30
2019-05-28T05:35:40.792Z,20.40
2019-05-28T05:38:09.222Z,18.13
2019-05-28T05:40:37.719Z,18.30
2019-05-28T05:43:06.244Z,20.47
2019-05-28T05:45:34.776Z,21.53
2019-05-28T05:48:03.250Z,19.43
2019-05-28T05:50:31.699Z,15.70
2019-05-28T05:53:00.226Z,16.77
2019-05-28T05:55:28.640Z,20.13
2019-05-28T05:57:57.164Z,20.50
2019-05-28T06:00:25.632Z,18.40
2019-05-28T06:02:54.168Z,18.60
2019-05-28T06:05:22.665Z,17.03
2019-05-28T06:07:51.291Z,17.73
2019-05-28T06:10:19.671Z,23.37
2019-05-28T06:12:48.183Z,20.10
2019-05-28T06:15:16.760Z,22.17
2019-05-28T06:17:45.197Z,19.90
2019-05-28T06:20:14.138Z,18.80
2019-05-28T06:22:42.659Z,19.20
2019-05-28T06:25:11.444Z,17.57
2019-05-28T06:27:39.835Z,19.17
2019-05-28T06:30:09.192Z,18.77
2019-05-28T06:32:38.626Z,21.07
2019-05-28T06:35:07.861Z,21.03
2019-05-28T06:37:36.296Z,20.77
2019-05-28T06:40:07.439Z,19.80
2019-05-28T06:42:39.410Z,18.03
2019-05-28T06:45:09.809Z,17.13
2019-05-28T06:47:38.380Z,17.63
2019-05-28T06:50:10.307Z,19.53
2019-05-28T06:52:39.235Z,17.37
2019-05-28T06:55:08.109Z,17.73
2019-05-28T06:57:36.557Z,17.23
2019-05-28T07:00:06.866Z,20.33
2019-05-28T07:02:35.302Z,19.07
2019-05-28T07:05:04.752Z,18.47
2019-05-28T07:07:33.238Z,16.93
2019-05-28T07:10:01.651Z,17.43
2019-05-28T07:12:30.277Z,20.97
2019-05-28T07:14:59.004Z,17.83
2019-05-28T07:17:27.704Z,21.43
2019-05-28T07:19:56.172Z,18.83
2019-05-28T07:22:24.617Z,28.57
2019-05-28T07:24:53.106Z,24.97
2019-05-28T07:27:21.627Z,28.27
2019-05-28T07:29:50.047Z,45.90
2019-05-28T07:32:18.538Z,39.63
2019-05-28T07:34:47.043Z,35.80
2019-05-28T07:37:15.450Z,22.03
2019-05-28T07:39:43.899Z,19.77
2019-05-28T07:42:12.430Z,18.47
2019-05-28T07:44:41.103Z,23.80
2019-05-28T07:47:11.166Z,20.90
2019-05-28T07:49:39.838Z,18.13
2019-05-28T07:52:08.262Z,19.60
2019-05-28T07:54:55.453Z,19.87
2019-05-28T07:57:23.889Z,17.97
2019-05-28T07:59:52.306Z,19.97
2019-05-28T08:02:20.748Z,21.57
2019-05-28T08:04:49.258Z,17.97
2019-05-28T08:07:17.814Z,19.07
2019-05-28T08:09:46.298Z,15.90
2019-05-28T08:12:14.977Z,20.60
2019-05-28T08:14:43.458Z,19.90
2019-05-28T08:17:11.938Z,19.90
2019-05-28T08:19:40.476Z,17.00
2019-05-28T08:22:08.986Z,17.10
2019-05-28T08:24:37.481Z,19.97
2019-05-28T08:27:06.036Z,18.37
2019-05-28T08:29:34.608Z,18.80
2019-05-28T08:32:03.031Z,19.43
2019-05-28T08:34:31.612Z,21.17
2019-05-28T08:37:06.050Z,21.53
2019-05-28T08:39:33.370Z,17.73
2019-05-28T08:42:00.526Z,20.37
2019-05-28T08:44:29.061Z,21.27
2019-05-28T08:46:57.474Z,18.53
2019-05-28T08:49:25.960Z,20.17
2019-05-28T08:51:54.386Z,17.70
2019-05-28T08:54:22.796Z,19.33
2019-05-28T08:56:51.336Z,18.67
2019-05-28T08:59:19.786Z,16.87
2019-05-28T09:01:48.306Z,17.23
2019-05-28T09:04:16.705Z,19.23
2019-05-28T09:06:45.118Z,17.07
2019-05-28T09:09:13.574Z,18.27
2019-05-28T09:11:41.974Z,17.27
2019-05-28T09:14:10.383Z,15.73
2019-05-28T09:16:38.813Z,15.43
2019-05-28T09:19:10.382Z,14.90
2019-05-28T09:21:37.634Z,16.57
2019-05-28T09:24:06.113Z,17.03
2019-05-28T09:26:34.709Z,17.03
2019-05-28T09:29:03.164Z,21.47
2019-05-28T09:31:31.609Z,15.70
2019-05-28T09:34:00.032Z,18.33
2019-05-28T09:36:31.530Z,17.70
2019-05-28T09:38:59.953Z,14.60
2019-05-28T09:41:28.404Z,16.17
2019-05-28T09:43:56.986Z,18.93
2019-05-28T09:46:25.633Z,14.23
2019-05-28T09:48:54.050Z,12.43
2019-05-28T09:51:22.518Z,14.30
2019-05-28T09:53:50.962Z,13.77
2019-05-28T09:56:19.354Z,12.20
2019-05-28T09:58:48.102Z,9.80
2019-05-28T10:01:16.925Z,13.57
2019-05-28T10:03:45.343Z,7.70
2019-05-28T10:06:17.581Z,9.30
2019-05-28T10:08:43.928Z,7.43
2019-05-28T10:11:12.361Z,5.97
2019-05-28T10:13:41.883Z,7.60
2019-05-28T10:16:10.469Z,7.80
2019-05-28T10:18:38.980Z,7.17
2019-05-28T10:21:17.657Z,7.10
2019-05-28T10:23:37.626Z,7.07
2019-05-28T10:26:06.224Z,7.30
2019-05-28T10:28:34.608Z,10.97
2019-05-28T10:31:03.307Z,4.90
2019-05-28T10:33:31.820Z,4.43
2019-05-28T10:36:00.235Z,15.40
2019-05-28T10:38:28.673Z,5.93
2019-05-28T10:40:57.160Z,6.30
2019-05-28T10:43:25.716Z,4.80
2019-05-28T10:45:54.275Z,6.57
2019-05-28T10:48:22.780Z,11.27
2019-05-28T10:50:51.205Z,11.63
2019-05-28T10:53:19.621Z,10.67
2019-05-28T10:55:48.176Z,6.50
2019-05-28T10:58:16.769Z,5.47
2019-05-28T11:00:45.179Z,5.50
2019-05-28T11:03:13.737Z,8.00
2019-05-28T11:05:42.375Z,9.07
2019-05-28T11:08:10.960Z,5.43
2019-05-28T11:10:39.402Z,6.27
2019-05-28T11:13:07.932Z,8.73
2019-05-28T11:15:36.475Z,8.00
2019-05-28T11:18:04.949Z,7.33
2019-05-28T11:20:33.677Z,10.83
2019-05-28T11:23:02.057Z,8.27
2019-05-28T11:25:32.015Z,7.07
2019-05-28T11:28:00.470Z,11.10
2019-05-28T11:30:30.182Z,7.60
2019-05-28T11:32:58.660Z,4.37
2019-05-28T11:35:27.517Z,5.13
2019-05-28T11:37:55.997Z,11.70
2019-05-28T11:40:25.065Z,10.80
2019-05-28T11:42:53.647Z,16.60
2019-05-28T11:45:23.703Z,13.17
2019-05-28T11:47:52.111Z,7.07
2019-05-28T11:50:21.062Z,5.60
2019-05-28T11:52:49.499Z,7.50
2019-05-28T11:55:18.875Z,6.07
2019-05-28T11:57:47.281Z,11.87
2019-05-28T12:00:16.558Z,6.67
2019-05-28T12:02:45.043Z,7.33
2019-05-28T12:05:14.318Z,9.10
2019-05-28T12:07:44.076Z,6.33
2019-05-28T12:10:14.399Z,13.17
2019-05-28T12:12:42.882Z,8.20
2019-05-28T12:15:16.705Z,4.67
2019-05-28T12:17:45.788Z,5.17
2019-05-28T12:20:16.898Z,5.43
2019-05-28T12:22:45.326Z,5.70
2019-05-28T12:25:14.897Z,3.47
2019-05-28T12:27:43.457Z,4.90
2019-05-28T12:30:18.162Z,7.27
2019-05-28T12:32:45.355Z,6.17
2019-05-28T12:35:27.282Z,6.37
2019-05-28T12:37:49.362Z,6.37
2019-05-28T12:40:16.313Z,4.57
2019-05-28T12:42:44.788Z,7.07
2019-05-28T12:45:15.328Z,6.97
2019-05-28T12:47:43.784Z,6.47
2019-05-28T12:50:20.035Z,5.30
2019-05-28T12:52:47.257Z,9.73
2019-05-28T12:55:16.728Z,33.87
2019-05-28T12:57:46.335Z,88.90
2019-05-28T13:00:15.621Z,27.47
2019-05-28T13:02:44.295Z,31.07
2019-05-28T13:05:15.553Z,6.90
2019-05-28T13:07:44.175Z,10.10
2019-05-28T13:10:12.964Z,11.23
2019-05-28T13:12:41.372Z,7.50
2019-05-28T13:15:10.214Z,9.67
2019-05-28T13:17:38.744Z,10.37
2019-05-28T13:20:08.253Z,8.80
2019-05-28T13:22:37.049Z,6.90
2019-05-28T13:25:07.366Z,11.40
2019-05-28T13:27:35.786Z,9.33
2019-05-28T13:30:12.860Z,12.70
2019-05-28T13:32:41.976Z,8.70
2019-05-28T13:35:11.715Z,11.03
2019-05-28T13:37:40.260Z,7.47
2019-05-28T13:40:10.372Z,9.90
2019-05-28T13:42:39.123Z,10.03
2019-05-28T13:45:08.662Z,6.67
2019-05-28T13:47:37.233Z,8.40
2019-05-28T13:50:08.291Z,8.50
2019-05-28T13:52:36.742Z,5.73
2019-05-28T13:55:06.965Z,4.17
2019-05-28T13:57:39.125Z,6.80
2019-05-28T14:00:10.408Z,6.30
2019-05-28T14:02:38.871Z,4.37
2019-05-28T14:05:10.975Z,6.70
2019-05-28T14:07:39.403Z,6.50
2019-05-28T14:10:08.942Z,3.93
2019-05-28T14:12:37.374Z,3.00
2019-05-28T14:15:08.203Z,5.03
2019-05-28T14:17:36.721Z,7.60
2019-05-28T14:20:07.597Z,4.23
2019-05-28T14:22:37.722Z,3.67
2019-05-28T14:25:08.336Z,10.00
2019-05-28T14:27:36.890Z,3.13
2019-05-28T14:30:11.180Z,3.33
2019-05-28T14:32:39.648Z,7.63
2019-05-28T14:35:08.522Z,3.77
2019-05-28T14:37:37.415Z,7.67
2019-05-28T14:40:07.200Z,4.27
2019-05-28T14:42:35.712Z,2.97
2019-05-28T14:45:10.941Z,5.13
2019-05-28T14:47:39.530Z,4.43
2019-05-28T14:50:08.676Z,3.03
2019-05-28T14:52:37.157Z,4.00
2019-05-28T14:55:08.124Z,4.57
2019-05-28T14:57:36.818Z,4.73
2019-05-28T15:00:17.116Z,8.97
2019-05-28T15:02:45.698Z,3.50
2019-05-28T15:05:15.319Z,4.83
2019-05-28T15:07:43.808Z,2.90
2019-05-28T15:10:14.311Z,3.13
2019-05-28T15:12:42.871Z,5.80
2019-05-28T15:15:13.156Z,3.10
2019-05-28T15:17:41.836Z,3.00
2019-05-28T15:20:11.216Z,3.23
2019-05-28T15:22:39.672Z,3.13
2019-05-28T15:25:09.643Z,9.47
2019-05-28T15:27:38.176Z,4.67
2019-05-28T15:30:09.539Z,5.00
2019-05-28T15:32:38.559Z,4.77
2019-05-28T15:35:07.891Z,5.57
2019-05-28T15:37:36.355Z,5.37
2019-05-28T15:40:07.107Z,5.80
2019-05-28T15:42:35.526Z,9.13
2019-05-28T15:45:08.192Z,4.40
2019-05-28T15:47:37.762Z,3.23
2019-05-28T15:50:08.244Z,3.43
2019-05-28T15:52:37.071Z,5.37
2019-05-28T15:55:06.807Z,3.23
2019-05-28T15:57:35.285Z,1.97
2019-05-28T16:00:05.818Z,2.60
2019-05-28T16:02:34.271Z,3.13
2019-05-28T16:05:02.985Z,3.17
2019-05-28T16:07:31.485Z,2.37
2019-05-28T16:10:00.309Z,2.93
2019-05-28T16:12:30.439Z,2.50
2019-05-28T16:15:00.727Z,1.60
2019-05-28T16:17:36.137Z,1.80
2019-05-28T16:20:10.248Z,2.27
2019-05-28T16:22:47.237Z,5.23
2019-05-28T16:25:29.669Z,2.70
2019-05-28T16:51:34.421Z,2.50
2019-05-28T16:54:18.095Z,2.43
2019-05-28T16:56:33.175Z,2.87
2019-05-28T16:59:01.585Z,4.27
2019-05-28T17:01:30.014Z,2.93
2019-05-28T17:03:58.438Z,4.87
2019-05-28T17:06:26.889Z,3.40
2019-05-28T17:08:55.301Z,4.83
2019-05-28T17:11:27.610Z,3.17
2019-05-28T17:13:55.144Z,2.93
2019-05-28T17:16:23.550Z,4.87
2019-05-28T17:18:51.974Z,2.60
2019-05-28T17:21:23.111Z,3.63
2019-05-28T17:23:50.589Z,3.90
2019-05-28T17:26:18.992Z,5.50
2019-05-28T17:28:47.420Z,2.93
2019-05-28T17:31:15.815Z,5.03
2019-05-28T17:33:44.243Z,2.23
2019-05-28T17:36:12.681Z,2.07
2019-05-28T17:38:41.139Z,2.97
2019-05-28T17:41:09.583Z,5.33
2019-05-28T17:43:38.009Z,2.17
2019-05-28T17:46:06.414Z,2.40
2019-05-28T17:48:34.862Z,2.27
2019-05-28T17:51:03.263Z,1.20
2019-05-28T17:53:31.682Z,3.33
2019-05-28T17:56:00.189Z,2.13
2019-05-28T17:58:30.978Z,9.20
2019-05-28T18:00:58.877Z,2.77
2019-05-28T18:03:27.312Z,3.37
2019-05-28T18:06:03.558Z,4.13
2019-05-28T18:08:32.062Z,1.30
2019-05-28T18:11:04.006Z,2.63
2019-05-28T18:13:30.936Z,2.03
2019-05-28T18:15:59.752Z,3.23
2019-05-28T18:18:30.128Z,2.07
2019-05-28T18:21:01.328Z,2.40
2019-05-28T18:23:29.825Z,1.33
2019-05-28T18:25:58.280Z,4.00
2019-05-28T18:28:26.684Z,2.27
2019-05-28T18:30:57.416Z,2.27
2019-05-28T18:33:25.386Z,1.90
2019-05-28T18:35:53.849Z,2.70
2019-05-28T18:38:22.268Z,6.10
2019-05-28T18:40:50.831Z,3.37
2019-05-28T18:43:19.337Z,4.40
2019-05-28T18:45:47.846Z,3.20
2019-05-28T18:48:17.871Z,2.77
2019-05-28T18:50:46.663Z,1.90
2019-05-28T18:53:15.176Z,4.10
2019-05-28T18:55:46.595Z,3.67
2019-05-28T18:58:15.086Z,2.13
2019-05-28T19:00:43.844Z,2.50
2019-05-28T19:03:12.257Z,1.93
2019-05-28T19:05:40.834Z,3.87
2019-05-28T19:08:09.433Z,1.47
2019-05-28T19:10:37.894Z,2.43
2019-05-28T19:13:06.427Z,1.73
2019-05-28T19:15:39.848Z,1.80
2019-05-28T19:18:09.432Z,3.77
2019-05-28T19:20:42.822Z,3.27
2019-05-28T19:23:18.602Z,2.07
2019-05-28T19:28:47.896Z,2.60
2019-05-28T19:31:28.810Z,2.30
2019-05-28T19:34:03.727Z,2.50
2019-05-28T19:36:38.395Z,4.30
2019-05-28T19:39:11.459Z,1.93
2019-05-28T19:41:52.736Z,4.07
2019-05-28T19:44:10.122Z,3.63
2019-05-28T19:46:39.683Z,3.80
2019-05-28T19:49:08.567Z,2.80
2019-05-28T19:51:37.107Z,3.07
2019-05-28T19:54:05.716Z,2.27
2019-05-28T19:56:34.908Z,5.30
2019-05-28T19:59:03.315Z,3.20
2019-05-28T20:01:31.738Z,4.33
2019-05-28T20:04:00.181Z,3.67
2019-05-28T20:06:31.066Z,9.00
2019-05-28T20:08:59.467Z,2.40
2019-05-28T20:11:28.506Z,3.30
2019-05-28T20:13:57.120Z,3.70
2019-05-28T20:16:28.202Z,2.90
2019-05-28T20:18:56.674Z,4.00
2019-05-28T20:21:25.128Z,3.87
2019-05-28T20:23:54.509Z,3.17
2019-05-28T20:26:22.964Z,3.47
2019-05-28T20:29:07.377Z,4.30
2019-05-28T20:31:21.657Z,3.60
2019-05-28T20:33:50.099Z,3.53
2019-05-28T20:36:18.514Z,8.63
2019-05-28T20:38:46.960Z,2.80
2019-05-28T20:41:15.745Z,3.77
2019-05-28T20:43:49.176Z,5.77
2019-05-28T20:46:18.653Z,6.27
2019-05-28T20:48:47.167Z,3.90
2019-05-28T20:51:21.775Z,4.50
2019-05-28T20:53:48.577Z,5.17
2019-05-28T20:56:20.874Z,5.60
2019-05-28T20:58:49.632Z,5.83
2019-05-28T21:01:19.720Z,11.87
2019-05-28T21:03:48.319Z,4.30
2019-05-28T21:06:16.778Z,5.90
2019-05-28T21:08:50.717Z,5.90
2019-05-28T21:11:19.190Z,7.33
2019-05-28T21:13:48.302Z,5.97
2019-05-28T21:16:18.489Z,5.77
2019-05-28T21:19:09.824Z,3.43
2019-05-28T21:25:00.542Z,4.13
2019-05-28T21:27:29.281Z,4.93
2019-05-28T21:29:58.332Z,5.03
2019-05-28T21:32:31.675Z,4.10
2019-05-28T21:35:02.537Z,5.67
2019-05-28T21:37:30.477Z,4.20
2019-05-28T21:39:59.616Z,4.80
2019-05-28T21:42:28.098Z,5.93
2019-05-28T21:44:56.659Z,5.77
2019-05-28T21:47:25.421Z,5.33
2019-05-28T21:49:54.582Z,6.07
2019-05-28T21:52:23.109Z,5.67
2019-05-28T21:54:51.544Z,5.73
2019-05-28T21:57:20.043Z,4.57
2019-05-28T21:59:50.404Z,5.50
2019-05-28T22:02:18.938Z,6.10
2019-05-28T22:04:50.387Z,6.77
2019-05-28T22:07:20.768Z,6.83
2019-05-28T22:09:49.189Z,5.20
2019-05-28T22:12:17.742Z,6.33
2019-05-28T22:14:46.185Z,8.07
2019-05-28T22:17:14.720Z,7.47
2019-05-28T22:19:43.197Z,5.87
2019-05-28T22:22:11.774Z,6.33
2019-05-28T22:24:40.244Z,7.87
2019-05-28T22:27:08.794Z,6.63
2019-05-28T22:29:37.623Z,7.67
2019-05-28T22:32:07.064Z,5.90
2019-05-28T22:34:35.521Z,8.57
2019-05-28T22:37:04.508Z,7.37
2019-05-28T22:39:32.955Z,6.27
2019-05-28T22:42:01.678Z,8.10
2019-05-28T22:44:30.385Z,7.13
2019-05-28T22:46:59.058Z,7.23
2019-05-28T22:49:27.771Z,7.30
2019-05-28T22:51:56.286Z,8.40
2019-05-28T22:54:24.909Z,7.37
2019-05-28T22:56:53.425Z,7.23
2019-05-28T22:59:22.055Z,6.37
2019-05-28T23:01:50.519Z,8.47
2019-05-28T23:04:18.991Z,8.37
2019-05-28T23:06:47.411Z,8.73
2019-05-28T23:09:15.952Z,8.00
2019-05-28T23:11:44.579Z,10.40
2019-05-28T23:14:13.023Z,10.03
2019-05-28T23:16:47.491Z,9.93
2019-05-28T23:19:16.050Z,7.83
2019-05-28T23:21:44.510Z,11.10
2019-05-28T23:24:13.006Z,8.43
2019-05-28T23:26:41.438Z,6.73
2019-05-28T23:29:09.975Z,8.27
2019-05-28T23:31:38.435Z,8.87
2019-05-28T23:34:06.940Z,9.60
2019-05-28T23:36:35.362Z,9.90
2019-05-28T23:39:05.535Z,9.47
2019-05-28T23:41:33.954Z,9.60
2019-05-28T23:44:03.800Z,10.13
2019-05-28T23:46:32.385Z,8.97
2019-05-28T23:49:00.824Z,10.70
2019-05-28T23:51:29.277Z,10.43
2019-05-28T23:53:57.735Z,9.43
2019-05-28T23:56:26.174Z,12.13
2019-05-28T23:58:54.703Z,12.80
